Time;durP1;ratioP1;P1;durP2;ratioP2;P2;SDS_P1;SDS_P2;PMS_P1;PMS_P2;Temp;Humidity;BMP_temperature;BMP_pressure;BME280_temperature;BME280_humidity;BME280_pressure;Samples;Min_cycle;Max_cycle;Signal;HPM_P1;HPM_P2
2022/12/19 00:01:07;;;;;;;30.40;15.13;;;;;;;6.06;100.00;102013.28;5067765;28;20037;-29
2022/12/19 00:03:33;;;;;;;31.27;16.60;;;;;;;5.85;100.00;101997.53;5067911;28;20609;-30
2022/12/19 00:06:03;;;;;;;33.28;16.80;;;;;;;6.02;100.00;102023.31;5068178;28;20112;-31
2022/12/19 00:08:29;;;;;;;34.47;16.73;;;;;;;6.01;100.00;102016.38;5067580;28;20029;-28
2022/12/19 00:10:59;;;;;;;32.53;16.02;;;;;;;5.99;100.00;102023.63;5067817;28;20089;-32
2022/12/19 00:13:26;;;;;;;29.88;15.52;;;;;;;5.89;100.00;102012.16;5049137;28;20020;-28
2022/12/19 00:15:52;;;;;;;32.70;16.77;;;;;;;5.91;100.00;102031.41;5049622;28;20036;-28
2022/12/19 00:18:17;;;;;;;31.75;14.73;;;;;;;5.93;100.00;102020.69;5049525;28;20040;-27
2022/12/19 00:20:43;;;;;;;28.05;15.93;;;;;;;5.97;100.00;102025.56;5067628;28;20487;-27
2022/12/19 00:23:08;;;;;;;30.83;15.98;;;;;;;5.98;100.00;102024.59;5067275;28;20048;-32
2022/12/19 00:25:34;;;;;;;30.58;15.55;;;;;;;5.99;100.00;102034.22;5067477;28;20036;-31
2022/12/19 00:27:59;;;;;;;30.42;15.82;;;;;;;5.98;100.00;102021.94;5065989;28;20032;-28
2022/12/19 00:30:25;;;;;;;30.30;15.18;;;;;;;5.81;100.00;102012.84;5067724;28;20059;-28
2022/12/19 00:32:50;;;;;;;32.20;16.55;;;;;;;5.77;100.00;102037.09;5062454;28;20500;-30
2022/12/19 00:35:16;;;;;;;34.22;17.35;;;;;;;5.88;100.00;102039.59;5047563;28;20029;-27
2022/12/19 00:37:41;;;;;;;30.70;16.15;;;;;;;5.81;100.00;102019.97;5047553;28;20805;-27
2022/12/19 00:40:07;;;;;;;28.40;15.45;;;;;;;5.77;100.00;102040.59;5046099;28;20115;-30
2022/12/19 00:42:32;;;;;;;34.22;16.80;;;;;;;5.69;100.00;102031.69;5045609;28;20057;-28
2022/12/19 00:44:58;;;;;;;34.22;17.98;;;;;;;5.77;100.00;102042.41;5047212;28;20099;-29
2022/12/19 00:47:26;;;;;;;31.83;16.40;;;;;;;5.75;100.00;102047.00;5061633;28;20040;-27
2022/12/19 00:49:51;;;;;;;;;;;;;;;5.86;100.00;102049.50;5047391;28;20025;-33
2022/12/19 00:52:17;;;;;;;33.45;16.35;;;;;;;5.82;100.00;102022.50;5047028;28;19935;-30
2022/12/19 00:54:42;;;;;;;34.75;17.85;;;;;;;5.91;100.00;102031.41;5047105;28;20061;-28
2022/12/19 00:57:08;;;;;;;35.03;16.98;;;;;;;5.95;100.00;102054.00;5046612;28;20028;-29
2022/12/19 00:59:33;;;;;;;34.50;18.10;;;;;;;5.67;100.00;102030.97;5047242;28;20039;-29
2022/12/19 01:01:59;;;;;;;38.38;16.48;;;;;;;5.70;100.00;102054.50;5045439;28;20033;-27
2022/12/19 01:04:24;;;;;;;36.45;17.25;;;;;;;5.78;100.00;102055.50;5046988;28;20037;-27
2022/12/19 01:06:50;;;;;;;38.38;18.83;;;;;;;5.93;100.00;102045.34;5047046;28;20037;-30
2022/12/19 01:09:15;;;;;;;34.45;16.33;;;;;;;5.77;100.00;102053.00;5046581;28;20025;-28
2022/12/19 01:14:25;;;;;;;34.90;17.08;;;;;;;5.69;100.00;102026.38;5046900;28;20036;-31
2022/12/19 01:16:50;;;;;;;38.63;17.42;;;;;;;5.67;100.00;102034.44;5046878;28;20560;-28
2022/12/19 01:19:16;;;;;;;34.70;18.02;;;;;;;5.92;100.00;102048.13;5061794;28;20441;-31
2022/12/19 01:21:41;;;;;;;38.20;18.70;;;;;;;5.80;100.00;102044.75;5062145;28;20021;-28
2022/12/19 01:24:07;;;;;;;42.40;17.98;;;;;;;5.75;100.00;102034.59;5047112;28;20037;-28
2022/12/19 01:26:32;;;;;;;31.02;16.77;;;;;;;5.65;100.00;102044.34;5046714;28;20116;-26
2022/12/19 01:28:58;;;;;;;33.95;16.80;;;;;;;5.48;100.00;102032.63;5047197;28;20187;-28
2022/12/19 01:31:23;;;;;;;34.15;16.50;;;;;;;5.59;100.00;102037.78;5044939;28;20025;-28
2022/12/19 01:33:49;;;;;;;37.25;17.05;;;;;;;5.85;100.00;102042.56;5045089;28;20493;-32
2022/12/19 01:36:14;;;;;;;35.55;17.08;;;;;;;5.55;100.00;102052.25;5045278;28;20184;-31
2022/12/19 01:38:40;;;;;;;35.13;16.92;;;;;;;5.53;100.00;102032.22;5046549;28;20041;-34
2022/12/19 01:41:05;;;;;;;37.50;17.17;;;;;;;5.79;100.00;102040.47;5046336;28;20025;-29
2022/12/19 01:43:52;;;;;;;34.55;15.82;;;;;;;5.79;100.00;102048.41;5046778;28;20075;-31
2022/12/19 01:46:24;;;;;;;31.60;16.40;;;;;;;5.70;100.00;102033.31;5046634;28;20025;-30
2022/12/19 01:48:50;;;;;;;29.95;14.73;;;;;;;5.66;100.00;102027.50;5045057;28;20098;-28
2022/12/19 01:51:21;;;;;;;26.73;12.70;;;;;;;5.32;100.00;102038.44;5046070;28;20029;-31
2022/12/19 01:53:50;;;;;;;26.50;13.07;;;;;;;5.19;99.62;102021.97;5044904;28;20140;-30
2022/12/19 01:56:23;;;;;;;28.67;13.07;;;;;;;5.03;99.18;102031.25;5061652;28;20413;-28
2022/12/19 01:58:53;;;;;;;27.67;13.30;;;;;;;5.03;99.70;102033.06;5045466;28;20071;-30
2022/12/19 02:01:18;;;;;;;21.08;10.77;;;;;;;5.11;97.13;102059.69;5049894;28;20040;-29
2022/12/19 02:03:44;;;;;;;23.67;10.02;;;;;;;4.89;95.84;102041.38;5050223;28;20041;-31
2022/12/19 02:06:15;;;;;;;24.10;12.15;;;;;;;4.93;97.10;102058.66;5048851;28;20132;-28
2022/12/19 02:08:43;;;;;;;20.85;10.13;;;;;;;4.60;97.51;102056.13;5050372;28;20052;-29
2022/12/19 02:11:09;;;;;;;23.60;12.15;;;;;;;4.61;97.43;102056.94;5049957;28;20032;-29
2022/12/19 02:13:34;;;;;;;23.95;10.98;;;;;;;4.72;98.33;102070.09;5065303;28;20033;-28
2022/12/19 02:16:18;;;;;;;23.35;11.00;;;;;;;4.59;98.15;102074.75;5050047;28;20041;-31
2022/12/19 02:19:08;;;;;;;20.70;10.32;;;;;;;4.28;98.51;102072.03;5050289;28;20089;-30
2022/12/19 02:21:41;;;;;;;22.70;11.18;;;;;;;4.20;100.00;102079.75;5048462;28;20021;-28
2022/12/19 02:24:22;;;;;;;25.90;10.98;;;;;;;4.45;99.03;102089.09;5048550;28;20064;-32
2022/12/19 02:27:03;;;;;;;23.50;11.75;;;;;;;4.25;98.52;102085.50;5048150;28;20033;-32
2022/12/19 02:30:04;;;;;;;22.65;10.70;;;;;;;3.94;97.21;102095.97;5050149;28;20070;-30
2022/12/19 02:32:52;;;;;;;19.85;10.07;;;;;;;4.22;97.69;102093.69;5054103;28;20088;-28
2022/12/19 02:35:36;;;;;;;;;;;;;;;4.20;95.87;102096.44;5069554;28;20056;-30
2022/12/19 02:38:10;;;;;;;23.48;11.90;;;;;;;4.27;98.58;102107.34;5069434;28;19967;-30
2022/12/19 02:40:44;;;;;;;23.38;12.15;;;;;;;4.07;97.68;102102.88;5051412;28;20662;-31
2022/12/19 02:43:12;;;;;;;40.63;18.60;;;;;;;4.10;95.72;102106.09;5069328;28;20025;-28
2022/12/19 02:45:38;;;;;;;;;;;;;;;4.08;96.69;102112.47;5069669;28;20097;-29
2022/12/19 02:48:05;;;;;;;26.60;12.75;;;;;;;4.03;96.29;102105.75;5069583;28;19912;-34
2022/12/19 02:50:43;;;;;;;40.65;28.15;;;;;;;4.14;96.32;102111.97;5069629;28;20115;-28
2022/12/19 02:53:13;;;;;;;56.83;35.90;;;;;;;4.07;94.70;102118.72;5069079;28;20036;-31
2022/12/19 02:55:54;;;;;;;40.75;23.08;;;;;;;3.76;93.98;102076.31;5051011;28;20036;-30
2022/12/19 02:58:28;;;;;;;31.15;17.00;;;;;;;3.97;94.72;102122.09;5069359;28;21081;-28
2022/12/19 03:01:03;;;;;;;38.30;20.77;;;;;;;4.19;95.42;102109.78;5051046;28;20033;-33
2022/12/19 03:03:38;;;;;;;28.75;17.77;;;;;;;4.31;94.42;102118.47;5067658;28;20029;-28
2022/12/19 03:06:11;;;;;;;31.65;19.88;;;;;;;4.21;95.62;102090.22;5069124;28;20029;-31
2022/12/19 03:09:14;;;;;;;32.00;20.85;;;;;;;4.34;93.48;102087.38;5051028;28;20147;-29
2022/12/19 03:11:41;;;;;;;22.70;10.70;;;;;;;4.49;93.49;102108.19;5067903;28;20024;-32
2022/12/19 03:14:11;;;;;;;21.10;10.65;;;;;;;4.42;93.04;102092.84;5068805;28;20024;-28
2022/12/19 03:16:36;;;;;;;22.98;11.52;;;;;;;4.58;93.73;102110.06;5050553;28;20032;-31
2022/12/19 03:19:07;;;;;;;24.40;11.23;;;;;;;4.50;92.54;102107.25;5068665;28;20024;-29
2022/12/19 03:21:37;;;;;;;23.05;11.55;;;;;;;4.66;94.35;102120.84;5050672;28;20115;-29
2022/12/19 03:24:05;;;;;;;23.42;11.75;;;;;;;4.60;94.63;102113.44;5050487;28;20039;-29
2022/12/19 03:26:37;;;;;;;22.23;11.00;;;;;;;4.74;95.01;102126.31;5050351;28;20037;-29
2022/12/19 03:29:21;;;;;;;24.20;11.55;;;;;;;4.78;96.12;102116.28;5068224;28;20028;-29
2022/12/19 03:31:47;;;;;;;23.95;12.82;;;;;;;4.76;95.76;102120.88;5068467;28;20139;-30
2022/12/19 03:34:33;;;;;;;25.25;15.07;;;;;;;4.87;95.32;102115.53;5068389;28;20423;-27
2022/12/19 03:37:02;;;;;;;26.58;16.00;;;;;;;4.89;95.31;102112.75;5067301;28;20424;-31
2022/12/19 03:39:29;;;;;;;22.58;11.43;;;;;;;4.85;93.68;102116.63;5050241;28;20416;-31
2022/12/19 03:44:42;;;;;;;22.65;11.45;;;;;;;4.96;92.47;102129.75;5068496;28;20098;-27
2022/12/19 03:47:22;;;;;;;23.05;11.15;;;;;;;4.77;94.84;102115.47;5067922;28;20028;-28
2022/12/19 03:49:48;;;;;;;22.13;11.75;;;;;;;4.91;94.87;102132.81;5050420;28;20025;-28
2022/12/19 03:52:34;;;;;;;22.70;10.27;;;;;;;4.86;93.94;102134.97;5049794;28;20044;-28
2022/12/19 03:55:16;;;;;;;23.85;10.90;;;;;;;4.96;92.88;102148.25;5068021;28;20031;-29
2022/12/19 03:57:55;;;;;;;20.20;11.18;;;;;;;4.81;94.21;102135.38;5066374;28;20037;-28
2022/12/19 04:00:23;;;;;;;25.42;11.48;;;;;;;4.67;95.70;102124.31;5067947;28;20412;-29
2022/12/19 04:02:49;;;;;;;;;;;;;;;4.85;96.40;102153.66;5068375;28;20055;-29
2022/12/19 04:05:22;;;;;;;22.52;12.00;;;;;;;4.90;95.47;102156.72;5068247;28;19997;-28
2022/12/19 04:07:49;;;;;;;51.50;27.73;;;;;;;4.99;94.46;102162.06;5067766;28;20021;-31
2022/12/19 04:10:20;;;;;;;183.68;87.78;;;;;;;5.16;93.45;102171.19;5067949;28;20040;-29
2022/12/19 04:12:55;;;;;;;26.52;13.75;;;;;;;4.93;93.30;102144.09;5067756;28;20500;-29
2022/12/19 04:15:33;;;;;;;24.40;12.20;;;;;;;4.96;93.58;102164.13;5049622;28;20381;-29
2022/12/19 04:18:02;;;;;;;91.10;49.00;;;;;;;4.96;91.06;102166.78;5067984;28;20020;-28
2022/12/19 04:20:30;;;;;;;123.53;54.92;;;;;;;5.09;90.51;102154.19;5049599;28;20461;-28
2022/12/19 04:23:16;;;;;;;185.20;76.55;;;;;;;5.10;90.73;102168.25;5067327;28;20111;-32
2022/12/19 04:25:47;;;;;;;29.83;15.50;;;;;;;4.94;91.89;102147.56;5067726;28;20037;-28
2022/12/19 04:28:21;;;;;;;25.95;12.32;;;;;;;4.97;92.52;102164.00;5067375;28;20462;-30
2022/12/19 04:30:48;;;;;;;27.38;14.75;;;;;;;4.78;92.63;102142.72;5049363;28;20094;-30
2022/12/19 04:33:14;;;;;;;29.08;14.48;;;;;;;4.94;91.21;102161.59;5066836;28;20105;-28
2022/12/19 04:35:39;;;;;;;27.95;13.50;;;;;;;4.68;91.78;102142.69;5067320;28;20032;-30
2022/12/19 04:38:05;;;;;;;31.23;14.80;;;;;;;4.89;92.29;102160.34;5065633;28;20037;-31
2022/12/19 04:40:31;;;;;;;61.30;37.60;;;;;;;4.94;93.45;102169.53;5067454;28;20044;-29
2022/12/19 04:42:56;;;;;;;34.05;17.15;;;;;;;5.03;92.94;102167.94;5066955;28;20032;-31
2022/12/19 04:45:21;;;;;;;24.75;12.52;;;;;;;5.11;90.33;102170.78;5049037;28;20355;-30
2022/12/19 04:47:47;;;;;;;24.85;12.13;;;;;;;5.14;91.54;102170.50;5067125;28;20785;-30
2022/12/19 04:50:12;;;;;;;25.45;12.63;;;;;;;5.20;90.74;102172.59;5065605;28;20123;-31
2022/12/19 04:52:38;;;;;;;23.83;12.25;;;;;;;5.17;91.30;102178.19;5066991;28;20085;-35
2022/12/19 04:55:03;;;;;;;23.48;12.80;;;;;;;4.93;91.02;102140.59;5066894;28;20021;-30
2022/12/19 04:57:30;;;;;;;25.88;13.43;;;;;;;5.08;92.23;102156.97;5065809;28;20059;-27
2022/12/19 04:59:55;;;;;;;28.38;13.88;;;;;;;5.18;90.71;102169.25;5048944;28;20115;-30
2022/12/19 05:02:21;;;;;;;26.67;13.25;;;;;;;5.11;91.53;102177.84;5066955;28;20407;-29
2022/12/19 05:04:46;;;;;;;21.63;11.60;;;;;;;5.06;90.60;102177.41;5066945;28;20029;-29
2022/12/19 05:07:15;;;;;;;25.50;11.75;;;;;;;5.09;89.92;102185.94;5066713;28;20036;-28
2022/12/19 05:09:40;;;;;;;25.30;13.23;;;;;;;5.10;93.21;102198.16;5067039;28;20032;-28
2022/12/19 05:12:06;;;;;;;25.27;12.63;;;;;;;5.12;91.48;102198.88;5067152;28;20032;-29
2022/12/19 05:14:32;;;;;;;23.73;11.27;;;;;;;4.98;91.26;102204.50;5048589;28;20026;-28
2022/12/19 05:16:58;;;;;;;25.65;12.55;;;;;;;5.10;91.20;102192.88;5048905;28;20044;-29
2022/12/19 05:19:23;;;;;;;22.92;11.88;;;;;;;5.18;90.29;102203.66;5067108;28;20037;-31
2022/12/19 05:21:49;;;;;;;24.02;12.27;;;;;;;5.15;88.52;102203.94;5066681;28;20024;-30
2022/12/19 05:24:14;;;;;;;25.17;13.02;;;;;;;5.00;91.09;102206.03;5066987;28;20031;-29
2022/12/19 05:26:40;;;;;;;23.95;12.30;;;;;;;4.87;89.85;102207.22;5067275;28;20087;-36
2022/12/19 05:29:06;;;;;;;30.55;14.43;;;;;;;4.95;90.35;102210.06;5066603;28;20029;-28
2022/12/19 05:31:31;;;;;;;77.65;36.05;;;;;;;4.99;91.67;102208.84;5066508;28;20120;-31
2022/12/19 05:33:57;;;;;;;51.80;22.35;;;;;;;4.97;87.60;102221.34;5065551;28;20194;-32
2022/12/19 05:36:22;;;;;;;128.70;55.63;;;;;;;5.02;86.62;102219.13;5052454;28;20063;-29
2022/12/19 05:38:48;;;;;;;80.13;41.35;;;;;;;4.96;87.98;102230.22;5070827;28;20024;-29
2022/12/19 05:41:15;;;;;;;68.50;34.80;;;;;;;5.05;86.48;102229.47;5070706;28;20028;-29
2022/12/19 05:43:42;;;;;;;28.23;14.65;;;;;;;4.91;86.38;102198.91;5052389;28;20849;-29
2022/12/19 05:46:08;;;;;;;26.02;12.70;;;;;;;4.95;86.31;102223.28;5052289;28;20021;-29
2022/12/19 05:48:34;;;;;;;70.60;35.38;;;;;;;5.00;83.60;102218.44;5070445;28;20028;-28
2022/12/19 05:50:59;;;;;;;25.17;11.88;;;;;;;5.08;84.54;102228.38;5052009;28;20070;-29
2022/12/19 05:53:26;;;;;;;34.15;14.10;;;;;;;5.04;84.85;102207.47;5052574;28;20059;-31
2022/12/19 05:56:02;;;;;;;30.02;14.20;;;;;;;5.14;87.61;102233.13;5068914;28;20605;-30
2022/12/19 05:58:27;;;;;;;27.17;13.88;;;;;;;5.02;86.39;102241.13;5070462;28;20067;-29
2022/12/19 06:00:53;;;;;;;27.58;14.73;;;;;;;5.04;86.89;102236.53;5070155;28;20029;-29
2022/12/19 06:03:18;;;;;;;27.73;13.65;;;;;;;5.06;86.70;102212.63;5070060;28;20078;-29
2022/12/19 06:05:44;;;;;;;39.75;18.58;;;;;;;5.05;88.95;102213.59;5069986;28;20024;-27
2022/12/19 06:08:09;;;;;;;69.55;32.30;;;;;;;5.03;89.34;102236.69;5052138;28;20028;-30
2022/12/19 06:10:34;;;;;;;82.97;36.65;;;;;;;4.98;89.54;102233.59;5070191;28;20063;-31
2022/12/19 06:13:00;;;;;;;70.72;33.45;;;;;;;5.06;91.50;102257.59;5070314;28;20039;-28
2022/12/19 06:15:25;;;;;;;86.28;39.50;;;;;;;5.02;90.54;102256.16;5051565;28;20117;-28
2022/12/19 06:17:54;;;;;;;145.85;66.60;;;;;;;5.08;89.30;102255.66;5070087;28;20043;-32
2022/12/19 06:20:19;;;;;;;178.20;101.75;;;;;;;5.22;87.59;102263.25;5069904;28;20035;-30
2022/12/19 06:22:45;;;;;;;73.53;43.92;;;;;;;5.27;90.13;102269.97;5070154;28;20032;-30
2022/12/19 06:25:10;;;;;;;58.33;38.17;;;;;;;5.06;90.74;102240.88;5069760;28;20033;-30
2022/12/19 06:27:35;;;;;;;32.13;20.63;;;;;;;5.33;89.45;102264.16;5070204;28;20474;-29
2022/12/19 06:30:01;;;;;;;25.38;13.20;;;;;;;5.17;89.21;102276.03;5051844;28;20024;-29
2022/12/19 06:32:26;;;;;;;30.23;16.15;;;;;;;4.98;90.58;102260.88;5051492;28;20060;-28
2022/12/19 06:34:52;;;;;;;30.50;16.42;;;;;;;5.02;89.73;102264.09;5069646;28;20048;-34
2022/12/19 06:37:17;;;;;;;31.83;17.80;;;;;;;5.21;88.80;102288.06;5069289;28;20046;-32
2022/12/19 06:39:42;;;;;;;30.15;16.30;;;;;;;5.13;89.66;102279.91;5069647;28;20504;-29
2022/12/19 06:42:26;;;;;;;27.02;13.80;;;;;;;5.00;89.05;102284.53;5051108;28;20033;-30
2022/12/19 06:44:53;;;;;;;25.77;12.13;;;;;;;5.22;88.34;102287.06;5067902;28;20567;-30
2022/12/19 06:47:20;;;;;;;24.85;13.05;;;;;;;5.27;89.33;102291.13;5049741;28;20060;-30
2022/12/19 06:49:45;;;;;;;29.42;13.90;;;;;;;5.15;89.03;102299.16;5072599;28;20036;-31
2022/12/19 06:52:11;;;;;;;26.70;13.40;;;;;;;5.15;88.96;102272.69;5089631;28;20645;-34
2022/12/19 06:54:36;;;;;;;25.92;12.15;;;;;;;5.29;88.31;102294.47;5089465;28;20016;-31
2022/12/19 06:57:02;;;;;;;25.67;13.88;;;;;;;5.27;88.90;102280.53;5089697;28;20075;-33
2022/12/19 06:59:27;;;;;;;30.67;14.68;;;;;;;5.24;89.50;102303.66;5089880;28;20109;-29
2022/12/19 07:01:57;;;;;;;24.92;12.43;;;;;;;5.12;90.29;102309.97;5088066;28;20089;-34
2022/12/19 07:04:30;;;;;;;27.27;14.45;;;;;;;5.30;91.51;102312.06;5071590;28;20024;-28
2022/12/19 07:06:56;;;;;;;60.33;34.63;;;;;;;5.36;89.95;102317.66;5070878;28;20073;-27
2022/12/19 07:09:22;;;;;;;27.65;15.05;;;;;;;5.23;90.69;102298.47;5070980;28;20024;-28
2022/12/19 07:11:47;;;;;;;37.78;19.70;;;;;;;5.21;91.68;102311.84;5089259;28;20039;-28
2022/12/19 07:14:13;;;;;;;35.13;17.58;;;;;;;5.45;89.67;102321.31;5088951;28;20710;-28
2022/12/19 07:16:39;;;;;;;36.13;18.80;;;;;;;5.36;90.60;102309.72;5089363;28;20032;-32
2022/12/19 07:19:05;;;;;;;27.60;13.75;;;;;;;5.30;90.51;102325.28;5088959;28;20048;-28
2022/12/19 07:21:31;;;;;;;42.15;19.30;;;;;;;5.41;90.32;102330.50;5089030;28;20032;-31
2022/12/19 07:23:58;;;;;;;34.90;15.38;;;;;;;5.51;89.92;102334.03;5088769;28;20039;-28
2022/12/19 07:26:23;;;;;;;35.30;16.63;;;;;;;5.42;89.69;102332.19;5088773;28;20116;-29
2022/12/19 07:28:49;;;;;;;29.33;13.70;;;;;;;5.19;90.02;102331.44;5088987;28;20040;-27
2022/12/19 07:31:15;;;;;;;218.77;92.35;;;;;;;5.34;90.33;102335.47;5088496;28;20028;-29
2022/12/19 07:33:40;;;;;;;139.77;59.15;;;;;;;5.40;88.25;102334.97;5088794;28;20052;-30
2022/12/19 07:36:06;;;;;;;53.30;25.17;;;;;;;5.36;89.75;102333.53;5088729;28;20039;-28
2022/12/19 07:38:31;;;;;;;64.82;37.25;;;;;;;5.38;91.36;102347.47;5070126;28;20039;-28
2022/12/19 07:41:00;;;;;;;32.50;15.30;;;;;;;5.28;89.83;102345.75;5070354;28;20039;-28
2022/12/19 07:43:26;;;;;;;66.55;49.90;;;;;;;5.18;90.48;102343.00;5088281;28;20039;-28
2022/12/19 07:45:55;;;;;;;36.97;19.02;;;;;;;5.26;91.14;102342.38;5088684;28;20027;-27
2022/12/19 07:48:21;;;;;;;33.78;16.63;;;;;;;5.30;91.89;102341.16;5070127;28;20028;-28
2022/12/19 07:50:47;;;;;;;31.05;14.38;;;;;;;5.29;90.11;102356.19;5069978;28;20028;-29
2022/12/19 07:53:14;;;;;;;29.48;12.85;;;;;;;5.03;89.97;102350.41;5088175;28;20024;-31
2022/12/19 07:55:39;;;;;;;24.58;13.02;;;;;;;5.16;90.29;102364.28;5069973;28;20024;-31
2022/12/19 07:58:05;;;;;;;45.08;24.52;;;;;;;4.94;90.18;102345.88;5069346;28;20089;-28
2022/12/19 08:00:31;;;;;;;26.67;13.52;;;;;;;5.11;90.75;102353.28;5069974;28;20055;-28
2022/12/19 08:02:59;;;;;;;28.30;13.07;;;;;;;5.06;89.60;102363.38;5088165;28;20028;-28
2022/12/19 08:05:24;;;;;;;28.77;13.73;;;;;;;4.98;90.10;102371.09;5087691;28;20038;-37
2022/12/19 08:07:50;;;;;;;25.52;11.95;;;;;;;5.21;88.46;102377.13;5089094;28;20024;-31
2022/12/19 08:10:15;;;;;;;37.75;20.50;;;;;;;5.13;88.12;102377.78;5087584;28;20403;-27
2022/12/19 08:12:41;;;;;;;28.88;13.23;;;;;;;5.28;87.87;102388.06;5088722;28;20062;-28
2022/12/19 08:15:06;;;;;;;36.05;16.15;;;;;;;5.06;90.16;102359.91;5088553;28;20027;-29
2022/12/19 08:17:32;;;;;;;46.67;21.95;;;;;;;5.13;88.65;102353.97;5070599;28;20055;-29
2022/12/19 08:19:57;;;;;;;38.15;19.10;;;;;;;5.34;87.56;102390.19;5088830;28;20475;-27
2022/12/19 08:22:23;;;;;;;29.15;13.52;;;;;;;5.27;89.38;102391.66;5089091;28;20035;-29
2022/12/19 08:24:48;;;;;;;26.92;14.90;;;;;;;5.38;89.97;102389.81;5088810;28;20106;-29
2022/12/19 08:27:17;;;;;;;34.92;17.88;;;;;;;5.27;87.26;102397.81;5088817;28;20035;-29
2022/12/19 08:29:43;;;;;;;32.75;16.20;;;;;;;5.07;87.90;102375.66;5089071;28;20031;-27
2022/12/19 08:32:08;;;;;;;26.23;14.15;;;;;;;5.09;87.49;102389.59;5088468;28;20047;-30
2022/12/19 08:34:34;;;;;;;28.25;14.07;;;;;;;5.15;88.05;102404.94;5088701;28;20043;-28
2022/12/19 08:36:59;;;;;;;28.73;14.70;;;;;;;5.02;86.85;102393.69;5070357;28;20055;-30
2022/12/19 08:39:26;;;;;;;28.02;13.65;;;;;;;5.14;85.97;102403.25;5088300;28;20048;-30
2022/12/19 08:41:51;;;;;;;33.92;15.15;;;;;;;5.14;87.13;102395.31;5086858;28;20030;-27
2022/12/19 08:44:17;;;;;;;27.58;13.90;;;;;;;4.98;87.75;102381.66;5088739;28;20079;-30
2022/12/19 08:46:42;;;;;;;30.10;15.38;;;;;;;4.96;88.61;102395.00;5088776;28;20030;-28
2022/12/19 08:49:08;;;;;;;26.80;16.02;;;;;;;4.99;86.68;102397.41;5087015;28;20034;-28
2022/12/19 08:51:33;;;;;;;29.13;14.85;;;;;;;4.99;87.13;102396.59;5087978;28;20077;-29
2022/12/19 08:53:59;;;;;;;26.25;13.77;;;;;;;5.24;87.22;102403.34;5087258;28;20028;-28
2022/12/19 08:56:24;;;;;;;28.73;14.82;;;;;;;4.98;85.13;102379.03;5087543;28;20028;-29
2022/12/19 08:58:51;;;;;;;29.58;14.13;;;;;;;5.03;86.55;102401.50;5088401;28;20052;-27
2022/12/19 09:01:18;;;;;;;22.83;12.18;;;;;;;5.00;86.82;102403.53;5088470;28;20024;-30
2022/12/19 09:03:44;;;;;;;24.13;13.37;;;;;;;4.88;87.29;102380.75;5088707;28;20065;-27
2022/12/19 09:06:11;;;;;;;25.98;11.85;;;;;;;5.16;88.46;102403.13;5086938;28;20062;-28
2022/12/19 09:08:37;;;;;;;21.88;10.02;;;;;;;5.08;86.89;102371.19;5069104;28;20062;-28
2022/12/19 09:11:05;;;;;;;24.58;11.27;;;;;;;5.38;85.73;102391.63;5069510;28;20040;-28
2022/12/19 09:13:32;;;;;;;21.05;9.75;;;;;;;5.17;84.44;102381.84;5070146;28;20028;-29
2022/12/19 09:16:21;;;;;;;21.38;9.90;;;;;;;5.21;85.57;102398.28;5088075;28;20474;-28
2022/12/19 09:18:49;;;;;;;18.58;9.75;;;;;;;5.17;85.08;102397.72;5088297;28;20089;-27
2022/12/19 09:21:16;;;;;;;18.73;9.05;;;;;;;5.14;83.16;102408.53;5069589;28;20042;-31
2022/12/19 09:23:46;;;;;;;18.45;8.43;;;;;;;5.08;83.29;102402.91;5069721;28;20110;-30
2022/12/19 09:26:12;;;;;;;12.52;6.22;;;;;;;5.04;81.26;102384.66;5069758;28;20529;-27
2022/12/19 09:28:39;;;;;;;16.08;7.43;;;;;;;5.07;78.99;102407.38;5086564;28;20480;-31
2022/12/19 09:31:14;;;;;;;12.52;4.88;;;;;;;4.79;78.65;102404.31;5069371;28;20046;-28
2022/12/19 09:33:40;;;;;;;21.60;8.95;;;;;;;4.78;81.09;102381.50;5069626;28;20103;-27
2022/12/19 09:36:07;;;;;;;15.63;8.80;;;;;;;5.04;78.24;102389.94;5069374;28;20063;-29
2022/12/19 09:38:33;;;;;;;22.98;13.50;;;;;;;5.12;79.59;102384.03;5087885;28;20031;-28
2022/12/19 09:41:36;;;;;;;20.38;11.48;;;;;;;5.39;77.53;102386.22;5087979;28;20085;-27
2022/12/19 09:44:26;;;;;;;45.83;24.88;;;;;;;5.16;74.38;102392.56;5087847;28;20111;-30
2022/12/19 09:46:59;;;;;;;48.00;24.83;;;;;;;5.00;76.48;102395.59;5086619;28;20032;-30
2022/12/19 09:49:35;;;;;;;75.18;34.25;;;;;;;5.30;77.73;102391.44;5069319;28;20059;-29
2022/12/19 09:52:12;;;;;;;36.08;22.35;;;;;;;5.42;70.73;102395.69;5069645;28;20115;-27
2022/12/19 09:54:41;;;;;;;45.45;23.92;;;;;;;5.01;66.99;102392.84;5069292;28;20032;-28
2022/12/19 09:57:33;;;;;;;30.27;18.58;;;;;;;4.90;65.85;102353.19;5086529;28;20453;-27
2022/12/19 10:00:07;;;;;;;45.95;30.35;;;;;;;5.10;67.41;102380.66;5085761;28;20083;-30
2022/12/19 10:03:09;;;;;;;12.52;7.95;;;;;;;5.02;68.28;102369.88;5087837;28;20032;-28
2022/12/19 10:05:55;;;;;;;32.72;19.67;;;;;;;4.97;67.84;102378.19;5087810;28;20488;-28
2022/12/19 10:08:36;;;;;;;79.95;35.97;;;;;;;5.06;67.05;102368.66;5086369;28;20027;-30
2022/12/19 10:11:13;;;;;;;35.95;16.75;;;;;;;5.22;67.85;102373.53;5087449;28;20077;-29
2022/12/19 10:14:01;;;;;;;38.53;18.33;;;;;;;5.14;67.52;102339.78;5086357;28;20144;-29
2022/12/19 10:16:54;;;;;;;38.60;19.90;;;;;;;4.81;69.94;102333.66;5087490;28;20028;-29
2022/12/19 10:19:44;;;;;;;26.73;13.55;;;;;;;5.10;68.42;102346.28;5087257;28;20024;-28
2022/12/19 10:22:12;;;;;;;12.10;5.60;;;;;;;5.50;69.90;102358.84;5091281;28;20027;-28
2022/12/19 10:24:43;;;;;;;33.05;18.90;;;;;;;5.12;66.39;102372.63;5091475;28;20024;-31
2022/12/19 10:27:48;;;;;;;15.80;7.78;;;;;;;5.01;61.38;102365.56;5089433;28;20079;-32
2022/12/19 10:30:19;;;;;;;18.20;10.63;;;;;;;4.53;61.86;102364.09;5090990;28;20093;-29
2022/12/19 10:33:22;;;;;;;12.38;5.35;;;;;;;5.11;65.26;102355.91;5089222;28;20044;-27
2022/12/19 10:35:57;;;;;;;36.92;20.33;;;;;;;5.08;65.71;102345.56;5089468;28;20118;-29
2022/12/19 10:38:30;;;;;;;65.38;24.50;;;;;;;5.14;64.43;102341.59;5090778;28;20499;-30
2022/12/19 10:41:20;;;;;;;19.48;9.35;;;;;;;5.47;66.70;102329.97;5090903;28;20039;-30
2022/12/19 10:43:46;;;;;;;72.07;28.05;;;;;;;5.39;62.03;102348.31;5072693;28;20028;-31
2022/12/19 10:46:17;;;;;;;241.82;67.25;;;;;;;5.22;62.34;102316.16;5090844;28;20062;-31
2022/12/19 10:48:42;;;;;;;64.20;23.55;;;;;;;4.88;61.50;102312.00;5089248;28;20047;-29
2022/12/19 10:51:18;;;;;;;43.97;19.40;;;;;;;5.05;63.35;102324.69;5090416;28;20412;-28
2022/12/19 10:53:52;;;;;;;45.65;16.55;;;;;;;5.21;65.08;102325.09;5072331;28;20031;-29
2022/12/19 10:56:23;;;;;;;64.45;26.88;;;;;;;5.07;64.27;102327.19;5090527;28;20437;-27
2022/12/19 10:58:56;;;;;;;126.30;49.25;;;;;;;5.09;65.06;102315.53;5089095;28;20024;-28
2022/12/19 11:01:43;;;;;;;130.75;50.10;;;;;;;5.24;64.26;102330.09;5090040;28;20028;-28
2022/12/19 11:04:28;;;;;;;66.35;25.67;;;;;;;5.51;68.71;102320.81;5090614;28;20027;-27
2022/12/19 11:07:02;;;;;;;148.43;55.80;;;;;;;5.69;67.60;102321.06;5090329;28;20028;-28
2022/12/19 11:09:39;;;;;;;41.75;19.83;;;;;;;5.76;67.22;102308.97;5090083;28;20020;-30
2022/12/19 11:12:07;;;;;;;206.95;102.32;;;;;;;5.52;65.33;102311.09;5088808;28;20036;-31
2022/12/19 11:14:34;;;;;;;;;;;;;;;5.39;65.97;102313.91;5090718;28;20078;-31
2022/12/19 11:17:00;;;;;;;36.40;18.85;;;;;;;5.11;62.58;102297.72;5071797;28;19916;-29
2022/12/19 11:19:33;;;;;;;15.73;7.85;;;;;;;4.99;65.56;102320.72;5071559;28;20456;-32
2022/12/19 11:22:05;;;;;;;19.65;11.65;;;;;;;5.20;66.35;102307.53;5089930;28;20687;-29
2022/12/19 11:24:38;;;;;;;13.70;5.80;;;;;;;5.50;66.72;102313.84;5070720;28;20569;-27
2022/12/19 11:27:40;;;;;;;18.88;9.27;;;;;;;5.74;64.09;102321.50;5089443;28;20032;-28
2022/12/19 11:30:15;;;;;;;20.05;11.65;;;;;;;5.81;62.71;102317.34;5071158;28;20086;-30
2022/12/19 11:32:43;;;;;;;16.48;9.75;;;;;;;5.57;66.52;102320.28;5070059;28;20071;-29
2022/12/19 11:35:19;;;;;;;;;;;;;;;5.56;65.90;102318.63;5071462;28;20024;-28